Time;durP1;ratioP1;P1;durP2;ratioP2;P2;SDS_P1;SDS_P2;PMS_P1;PMS_P2;Temp;Humidity;BMP_temperature;BMP_pressure;BME280_temperature;BME280_humidity;BME280_pressure;Samples;Min_cycle;Max_cycle;Signal;HPM_P1;HPM_P2
2022/03/09 00:01:00;;;;;;;31.23;16.58;;;3.60;99.90;;;;;;5044615;28;20025;-73
2022/03/09 00:03:26;;;;;;;23.85;15.23;;;3.40;99.90;;;;;;5057964;28;20025;-73
2022/03/09 00:05:52;;;;;;;32.95;15.50;;;3.30;99.90;;;;;;5044658;28;20021;-73
2022/03/09 00:08:17;;;;;;;28.08;15.95;;;3.30;99.90;;;;;;5041992;28;20029;-73
2022/03/09 00:10:43;;;;;;;19.92;13.40;;;3.20;99.90;;;;;;5048273;28;20039;-72
2022/03/09 00:13:09;;;;;;;25.88;13.30;;;3.20;99.90;;;;;;5046242;28;20059;-73
2022/03/09 00:15:34;;;;;;;22.95;13.52;;;3.20;99.90;;;;;;5045528;28;20025;-72
2022/03/09 00:18:43;;;;;;;27.27;17.40;;;3.20;99.90;;;;;;5043523;28;20120;-73
2022/03/09 00:21:08;;;;;;;22.95;13.00;;;3.20;99.90;;;;;;5042265;28;20143;-72
2022/03/09 00:23:34;;;;;;;24.02;14.60;;;3.30;99.90;;;;;;5040413;28;20159;-72
2022/03/09 00:26:00;;;;;;;20.50;14.75;;;3.40;99.90;;;;;;5035653;28;20115;-73
2022/03/09 00:28:26;;;;;;;21.02;13.98;;;3.40;99.90;;;;;;5041347;28;20040;-73
2022/03/09 00:30:52;;;;;;;18.83;12.50;;;3.40;99.90;;;;;;5042799;28;20037;-72
2022/03/09 00:33:17;;;;;;;19.60;13.25;;;3.40;99.90;;;;;;5038917;28;20583;-72
2022/03/09 00:35:44;;;;;;;23.40;11.57;;;3.30;99.90;;;;;;5043452;28;20033;-73
2022/03/09 00:38:10;;;;;;;18.35;11.52;;;3.20;99.90;;;;;;5040827;28;20025;-72
2022/03/09 00:40:36;;;;;;;14.90;11.00;;;3.30;99.90;;;;;;5041525;28;20029;-72
2022/03/09 00:43:02;;;;;;;20.52;12.35;;;3.30;99.90;;;;;;5043024;28;20022;-71
2022/03/09 00:45:28;;;;;;;18.75;10.75;;;3.40;99.90;;;;;;5049867;28;20493;-75
2022/03/09 00:47:54;;;;;;;17.33;10.95;;;3.40;99.90;;;;;;5047142;28;20020;-73
2022/03/09 00:50:20;;;;;;;16.08;9.95;;;3.40;99.90;;;;;;5043706;28;20475;-73
2022/03/09 00:52:47;;;;;;;16.05;10.02;;;3.30;99.90;;;;;;5040273;28;20031;-73
2022/03/09 00:55:13;;;;;;;13.48;9.10;;;3.30;99.90;;;;;;5044530;28;20484;-72
2022/03/09 00:57:39;;;;;;;13.93;10.10;;;3.20;99.90;;;;;;5044151;28;20079;-74
2022/03/09 01:00:07;;;;;;;16.52;10.18;;;3.20;99.90;;;;;;5041631;28;20483;-72
2022/03/09 01:02:38;;;;;;;19.40;10.25;;;3.10;99.90;;;;;;5045270;28;20549;-75
2022/03/09 01:05:05;;;;;;;14.38;11.20;;;3.10;99.90;;;;;;5042105;28;20026;-73
2022/03/09 01:07:30;;;;;;;12.93;9.88;;;3.10;99.90;;;;;;5045874;28;20111;-73
2022/03/09 01:09:56;;;;;;;15.60;10.70;;;3.10;99.90;;;;;;5043086;28;20108;-73
2022/03/09 01:12:22;;;;;;;12.00;8.63;;;3.10;99.90;;;;;;5040928;28;20025;-73
2022/03/09 01:14:47;;;;;;;14.15;9.70;;;3.00;99.90;;;;;;5036714;28;20124;-73
2022/03/09 01:17:13;;;;;;;17.38;9.75;;;3.00;99.90;;;;;;5044663;28;20032;-73
2022/03/09 01:19:39;;;;;;;12.18;9.73;;;3.00;99.90;;;;;;5042866;28;20024;-73
2022/03/09 01:22:04;;;;;;;14.88;9.70;;;3.00;99.90;;;;;;5044728;28;20082;-73
2022/03/09 01:24:30;;;;;;;13.63;9.68;;;2.90;99.90;;;;;;5041381;28;20104;-74
2022/03/09 01:26:56;;;;;;;13.90;9.95;;;2.90;99.90;;;;;;5043403;28;20029;-73
2022/03/09 01:29:21;;;;;;;18.10;11.82;;;3.00;99.90;;;;;;5042647;28;20025;-73
2022/03/09 01:31:47;;;;;;;15.32;11.35;;;2.90;99.90;;;;;;5042853;28;20055;-72
2022/03/09 01:34:13;;;;;;;19.40;13.02;;;2.90;99.90;;;;;;5041302;28;20083;-74
2022/03/09 01:36:39;;;;;;;18.88;13.10;;;2.80;99.90;;;;;;5043746;28;20120;-74
2022/03/09 01:39:05;;;;;;;14.15;9.48;;;2.70;99.90;;;;;;5041055;28;20057;-71
2022/03/09 01:41:31;;;;;;;10.93;8.50;;;2.80;99.90;;;;;;5039416;28;20471;-73
2022/03/09 01:44:10;;;;;;;11.38;8.75;;;2.90;99.90;;;;;;5044679;28;20108;-74
2022/03/09 01:46:37;;;;;;;19.88;14.15;;;2.90;99.90;;;;;;5045501;28;20487;-72
2022/03/09 01:49:04;;;;;;;20.63;15.63;;;2.80;99.90;;;;;;5041237;28;20431;-72
2022/03/09 01:51:32;;;;;;;17.83;12.05;;;2.60;99.90;;;;;;5039659;28;20060;-73
2022/03/09 01:53:58;;;;;;;16.42;11.38;;;2.70;99.90;;;;;;5039771;28;20079;-72
2022/03/09 01:56:24;;;;;;;14.98;10.48;;;2.60;99.90;;;;;;5039364;28;20030;-74
2022/03/09 01:58:50;;;;;;;16.42;10.40;;;2.60;99.90;;;;;;5039182;28;20028;-73
2022/03/09 02:01:16;;;;;;;16.50;10.65;;;2.50;99.90;;;;;;5044774;28;20032;-73
2022/03/09 02:03:42;;;;;;;15.50;10.68;;;2.60;99.90;;;;;;5038677;28;20017;-73
2022/03/09 02:06:07;;;;;;;13.27;10.00;;;2.80;99.90;;;;;;5039421;28;20493;-73
2022/03/09 02:11:19;;;;;;;29.23;16.70;;;2.90;99.90;;;;;;5038502;28;20041;-71
2022/03/09 02:13:44;;;;;;;16.05;10.48;;;2.80;99.90;;;;;;5037946;28;20048;-71
2022/03/09 02:16:14;;;;;;;18.17;10.20;;;2.90;99.90;;;;;;5041759;28;20029;-73
2022/03/09 02:18:40;;;;;;;27.10;13.55;;;2.90;99.90;;;;;;5039229;28;20535;-73
2022/03/09 02:21:10;;;;;;;23.27;13.38;;;2.90;99.90;;;;;;5042961;28;20100;-73
2022/03/09 02:23:36;;;;;;;17.23;10.48;;;2.90;99.90;;;;;;5042716;28;20021;-73
2022/03/09 02:26:02;;;;;;;12.55;8.15;;;2.80;99.90;;;;;;5040296;28;20028;-73
2022/03/09 02:28:27;;;;;;;16.08;7.70;;;2.80;99.90;;;;;;5044707;28;20029;-72
2022/03/09 02:30:57;;;;;;;9.95;7.30;;;2.90;99.90;;;;;;5047505;28;20475;-72
2022/03/09 02:33:23;;;;;;;12.27;7.97;;;2.90;99.90;;;;;;5033698;28;20108;-71
2022/03/09 02:35:52;;;;;;;9.75;7.55;;;3.00;99.90;;;;;;5052225;28;20160;-73
2022/03/09 02:38:17;;;;;;;8.30;6.70;;;2.90;99.90;;;;;;5047639;28;20250;-72
2022/03/09 02:40:43;;;;;;;19.65;6.65;;;2.90;99.90;;;;;;5038379;28;20119;-72
2022/03/09 02:43:09;;;;;;;9.65;7.00;;;3.00;99.90;;;;;;5039489;28;20017;-73
2022/03/09 02:45:35;;;;;;;12.25;8.98;;;2.90;99.90;;;;;;5048494;28;20163;-73
2022/03/09 02:48:01;;;;;;;10.63;7.60;;;2.90;99.90;;;;;;5042193;28;20570;-73
2022/03/09 02:50:26;;;;;;;13.25;7.38;;;2.90;99.90;;;;;;5041061;28;20028;-73
2022/03/09 02:52:52;;;;;;;12.73;8.77;;;3.00;99.90;;;;;;5046961;28;20045;-73
2022/03/09 02:55:18;;;;;;;14.52;9.65;;;3.00;99.90;;;;;;5047381;28;20025;-72
2022/03/09 02:57:43;;;;;;;13.98;11.43;;;3.00;99.90;;;;;;5051209;28;20040;-73
2022/03/09 03:00:11;;;;;;;14.52;11.93;;;2.90;99.90;;;;;;5044582;28;20041;-72
2022/03/09 03:02:37;;;;;;;13.20;10.95;;;2.80;99.90;;;;;;5047919;28;20382;-73
2022/03/09 03:05:03;;;;;;;13.52;8.32;;;2.70;99.90;;;;;;5040572;28;20025;-74
2022/03/09 03:07:29;;;;;;;13.77;9.18;;;2.60;99.90;;;;;;5046154;28;20048;-73
2022/03/09 03:09:56;;;;;;;13.00;8.63;;;2.60;99.90;;;;;;5040534;28;20053;-73
2022/03/09 03:12:22;;;;;;;9.48;6.53;;;2.60;99.90;;;;;;5048860;28;20064;-72
2022/03/09 03:14:47;;;;;;;12.70;8.73;;;2.70;99.90;;;;;;5042998;28;20517;-73
2022/03/09 03:17:13;;;;;;;15.20;10.23;;;2.70;99.90;;;;;;5038187;28;20034;-73
2022/03/09 03:19:39;;;;;;;13.25;10.60;;;2.70;99.90;;;;;;5043344;28;20027;-72
2022/03/09 03:22:04;;;;;;;13.75;10.38;;;2.70;99.90;;;;;;5043417;28;20092;-75
2022/03/09 03:24:30;;;;;;;19.23;9.80;;;2.60;99.90;;;;;;5043409;28;20025;-72
2022/03/09 03:26:56;;;;;;;13.15;10.27;;;2.60;99.90;;;;;;5047583;28;20036;-72
2022/03/09 03:29:22;;;;;;;19.52;10.10;;;2.50;99.90;;;;;;5046176;28;20424;-72
2022/03/09 03:31:48;;;;;;;23.48;9.30;;;2.50;99.90;;;;;;5042468;28;20051;-72
2022/03/09 03:34:13;;;;;;;13.50;10.45;;;2.30;99.90;;;;;;5044792;28;20025;-72
2022/03/09 03:36:39;;;;;;;17.52;10.77;;;2.30;99.90;;;;;;5046285;28;20025;-72
2022/03/09 03:39:05;;;;;;;17.88;10.15;;;2.30;99.90;;;;;;5044859;28;20136;-72
2022/03/09 03:41:31;;;;;;;14.98;10.10;;;2.20;99.90;;;;;;5049006;28;20021;-74
2022/03/09 03:43:57;;;;;;;14.35;9.40;;;2.20;99.90;;;;;;5042451;28;20040;-72
2022/03/09 03:46:22;;;;;;;13.20;8.73;;;2.20;99.90;;;;;;5038958;28;20033;-72
2022/03/09 03:48:48;;;;;;;14.20;8.25;;;2.40;99.90;;;;;;5047945;28;20549;-73
2022/03/09 03:51:15;;;;;;;11.27;8.20;;;2.50;99.90;;;;;;5045834;28;20241;-74
2022/03/09 03:53:41;;;;;;;18.00;9.57;;;2.50;99.90;;;;;;5040907;28;20395;-73
2022/03/09 03:56:07;;;;;;;12.13;8.60;;;2.50;99.90;;;;;;5047732;28;20029;-73
2022/03/09 03:58:33;;;;;;;12.73;9.98;;;2.40;99.90;;;;;;5045339;28;20021;-72
2022/03/09 04:00:59;;;;;;;12.50;8.63;;;2.50;99.90;;;;;;5042519;28;20372;-74
2022/03/09 04:03:24;;;;;;;11.95;7.03;;;2.50;99.90;;;;;;5042914;28;20523;-71
2022/03/09 04:05:50;;;;;;;12.07;8.15;;;2.50;99.90;;;;;;5043998;28;20059;-72
2022/03/09 04:08:16;;;;;;;10.45;7.47;;;2.60;99.90;;;;;;5035221;28;20337;-71
2022/03/09 04:10:41;;;;;;;13.38;8.77;;;2.50;99.90;;;;;;5047837;28;20027;-74
2022/03/09 04:13:07;;;;;;;10.40;8.00;;;2.60;99.90;;;;;;5042272;28;20023;-74
2022/03/09 04:15:33;;;;;;;12.10;8.45;;;2.50;99.90;;;;;;5048226;28;20507;-72
2022/03/09 04:17:59;;;;;;;12.15;8.00;;;2.40;99.90;;;;;;5038459;28;20025;-73
2022/03/09 04:20:25;;;;;;;10.48;8.10;;;2.40;99.90;;;;;;5043057;28;20021;-74
2022/03/09 04:22:51;;;;;;;13.07;7.75;;;2.40;99.90;;;;;;5042329;28;20029;-74
2022/03/09 04:25:17;;;;;;;15.05;8.57;;;2.30;99.90;;;;;;5044039;28;20105;-73
2022/03/09 04:27:43;;;;;;;15.30;8.48;;;2.30;99.90;;;;;;5043742;28;20116;-73
2022/03/09 04:30:10;;;;;;;13.23;9.30;;;2.30;99.90;;;;;;5043748;28;20032;-73
2022/03/09 04:32:36;;;;;;;19.20;8.52;;;2.30;99.90;;;;;;5039271;28;20026;-74
2022/03/09 04:35:03;;;;;;;12.70;7.43;;;2.20;99.90;;;;;;5040736;28;20035;-74
2022/03/09 04:37:33;;;;;;;12.00;7.68;;;2.20;99.90;;;;;;5045811;28;20036;-74
2022/03/09 04:40:05;;;;;;;12.05;8.50;;;2.10;99.90;;;;;;5042985;28;20417;-73
2022/03/09 04:42:31;;;;;;;9.77;8.02;;;2.20;99.90;;;;;;5043372;28;20094;-73
2022/03/09 04:44:58;;;;;;;10.57;7.47;;;2.20;99.90;;;;;;5041595;28;20022;-73
2022/03/09 04:47:23;;;;;;;10.15;7.22;;;2.30;99.90;;;;;;5043434;28;20096;-75
2022/03/09 04:49:59;;;;;;;12.55;7.18;;;2.50;99.90;;;;;;5061071;28;20102;-77
2022/03/09 04:52:28;;;;;;;11.98;7.72;;;2.50;99.90;;;;;;5045748;28;20078;-76
2022/03/09 04:54:54;;;;;;;21.08;8.57;;;2.50;99.90;;;;;;5045940;28;20028;-74
2022/03/09 04:57:20;;;;;;;14.00;8.60;;;2.60;99.90;;;;;;5045772;28;21456;-75
2022/03/09 04:59:46;;;;;;;10.60;8.70;;;2.60;99.90;;;;;;5049031;28;20150;-74
2022/03/09 05:02:12;;;;;;;17.92;12.63;;;2.50;99.90;;;;;;5045490;28;20100;-74
2022/03/09 05:04:37;;;;;;;18.33;11.82;;;2.60;99.90;;;;;;5045270;28;20032;-73
2022/03/09 05:07:04;;;;;;;16.90;11.57;;;2.50;99.90;;;;;;5039916;28;20040;-76
2022/03/09 05:09:29;;;;;;;14.57;9.27;;;2.60;99.90;;;;;;5044195;28;20086;-74
2022/03/09 05:11:55;;;;;;;12.65;9.55;;;2.60;99.90;;;;;;5040784;28;20123;-73
2022/03/09 05:14:21;;;;;;;10.07;7.97;;;2.50;99.90;;;;;;5039466;28;20037;-75
2022/03/09 05:16:47;;;;;;;10.23;7.82;;;2.40;99.90;;;;;;5041683;28;20475;-75
2022/03/09 05:19:12;;;;;;;12.70;8.38;;;2.30;99.90;;;;;;5039696;28;20405;-73
2022/03/09 05:21:38;;;;;;;15.98;9.43;;;2.20;99.90;;;;;;5042661;28;20027;-77
2022/03/09 05:24:05;;;;;;;11.38;7.82;;;2.20;99.90;;;;;;5041138;28;20035;-74
2022/03/09 05:26:30;;;;;;;9.82;7.40;;;2.30;99.90;;;;;;5040816;28;20479;-76
2022/03/09 05:28:57;;;;;;;14.63;7.25;;;2.30;99.90;;;;;;5041319;28;20082;-75
2022/03/09 05:31:24;;;;;;;17.08;9.15;;;2.40;99.90;;;;;;5041884;28;20025;-73
2022/03/09 05:33:49;;;;;;;11.90;8.68;;;2.40;99.90;;;;;;5039749;28;20035;-74
2022/03/09 05:36:15;;;;;;;10.65;8.77;;;2.50;99.90;;;;;;5042911;28;20029;-74
2022/03/09 05:38:41;;;;;;;11.07;7.45;;;2.60;99.90;;;;;;5044025;28;20285;-75
2022/03/09 05:41:07;;;;;;;12.30;7.75;;;2.50;99.90;;;;;;5037699;28;20032;-76
2022/03/09 05:43:32;;;;;;;15.05;8.07;;;2.40;99.90;;;;;;5046849;28;20036;-73
2022/03/09 05:45:58;;;;;;;12.93;7.30;;;2.40;99.90;;;;;;5048350;28;20044;-74
2022/03/09 05:48:24;;;;;;;21.45;8.60;;;2.50;99.90;;;;;;5041050;28;20040;-73
2022/03/09 05:50:49;;;;;;;15.52;9.23;;;2.60;99.90;;;;;;5043690;28;20040;-75
2022/03/09 05:53:15;;;;;;;11.35;7.28;;;2.60;99.90;;;;;;5045426;28;20032;-75
2022/03/09 05:55:41;;;;;;;10.48;6.50;;;2.70;99.90;;;;;;5048387;28;20024;-74
2022/03/09 05:58:07;;;;;;;12.90;8.13;;;3.00;99.90;;;;;;5044823;28;20016;-74
2022/03/09 06:00:33;;;;;;;16.42;7.47;;;3.10;99.90;;;;;;5038927;28;20018;-74
2022/03/09 06:02:58;;;;;;;14.25;7.93;;;3.20;99.90;;;;;;5044894;28;20287;-74
2022/03/09 06:05:24;;;;;;;17.48;7.55;;;3.10;99.90;;;;;;5042714;28;20332;-74
2022/03/09 06:07:50;;;;;;;10.93;6.55;;;3.20;99.90;;;;;;5037326;28;20028;-74
2022/03/09 06:10:16;;;;;;;14.35;8.35;;;3.20;99.90;;;;;;5040460;28;20032;-75
2022/03/09 06:12:42;;;;;;;16.75;8.40;;;3.30;99.90;;;;;;5046031;28;20030;-76
2022/03/09 06:15:08;;;;;;;16.02;8.27;;;3.20;99.90;;;;;;5048496;28;20032;-73
2022/03/09 06:17:43;;;;;;;16.67;9.45;;;3.30;99.90;;;;;;5037188;28;20030;-74
2022/03/09 06:20:10;;;;;;;15.13;8.35;;;3.20;99.90;;;;;;5039003;28;20102;-76
2022/03/09 06:22:36;;;;;;;11.60;7.68;;;3.20;99.90;;;;;;5047886;28;20024;-73
2022/03/09 06:25:02;;;;;;;16.02;8.30;;;3.20;99.90;;;;;;5046852;28;20021;-75
2022/03/09 06:27:28;;;;;;;13.43;7.88;;;3.40;99.90;;;;;;5048145;28;20033;-74
2022/03/09 06:29:55;;;;;;;15.73;7.97;;;3.50;99.90;;;;;;5040828;28;20446;-73
2022/03/09 06:32:21;;;;;;;13.43;8.35;;;3.60;99.90;;;;;;5041474;28;20087;-74
2022/03/09 06:34:47;;;;;;;14.70;7.75;;;3.70;99.90;;;;;;5039658;28;20421;-75
2022/03/09 06:37:12;;;;;;;10.38;7.45;;;3.80;99.90;;;;;;5043184;28;20036;-74
2022/03/09 06:39:38;;;;;;;13.20;7.72;;;3.90;99.90;;;;;;5049545;28;20026;-74
2022/03/09 06:42:04;;;;;;;11.90;8.05;;;3.90;99.90;;;;;;5061505;28;20052;-74
2022/03/09 06:44:31;;;;;;;14.18;7.75;;;3.90;99.90;;;;;;5060979;28;20021;-74
2022/03/09 06:46:57;;;;;;;10.95;7.38;;;4.00;99.90;;;;;;5044757;28;20098;-74
2022/03/09 06:49:22;;;;;;;14.02;8.70;;;4.10;99.90;;;;;;5044818;28;20029;-74
2022/03/09 06:51:48;;;;;;;21.40;9.30;;;4.30;99.90;;;;;;5039586;28;20029;-75
2022/03/09 06:54:14;;;;;;;20.23;8.63;;;4.50;99.90;;;;;;5040672;28;20025;-75
2022/03/09 06:56:40;;;;;;;10.45;7.10;;;4.60;99.90;;;;;;5049415;28;20025;-74
2022/03/09 06:59:05;;;;;;;11.00;7.93;;;4.70;99.90;;;;;;5047758;28;20032;-73
2022/03/09 07:01:31;;;;;;;21.98;7.88;;;4.90;99.90;;;;;;5042879;28;21627;-76
2022/03/09 07:03:57;;;;;;;11.43;7.15;;;5.10;99.90;;;;;;5038499;28;20047;-75
2022/03/09 07:06:23;;;;;;;11.93;7.10;;;5.30;99.90;;;;;;5041050;28;20028;-76
2022/03/09 07:08:49;;;;;;;15.50;7.95;;;5.50;99.90;;;;;;5043656;28;20111;-73
2022/03/09 07:11:14;;;;;;;11.18;7.70;;;5.70;99.90;;;;;;5045743;28;20025;-74
2022/03/09 07:13:41;;;;;;;11.68;7.43;;;5.70;99.90;;;;;;5043332;28;20036;-73
2022/03/09 07:16:06;;;;;;;11.63;8.18;;;5.70;99.90;;;;;;5040339;28;20541;-74
2022/03/09 07:18:32;;;;;;;14.05;7.72;;;5.90;99.90;;;;;;5050418;28;20025;-74
2022/03/09 07:20:58;;;;;;;12.40;7.20;;;6.00;99.90;;;;;;5043623;28;20032;-74
2022/03/09 07:23:24;;;;;;;11.40;8.27;;;6.10;99.90;;;;;;5086159;28;20021;-76
2022/03/09 07:25:50;;;;;;;17.73;8.98;;;6.30;99.90;;;;;;5070019;28;20501;-75
2022/03/09 07:28:16;;;;;;;11.00;7.43;;;6.50;99.90;;;;;;5070000;28;20024;-76
2022/03/09 07:30:42;;;;;;;19.65;7.97;;;6.50;99.90;;;;;;5047791;28;20031;-73
2022/03/09 07:33:07;;;;;;;16.35;8.75;;;6.50;99.90;;;;;;5049178;28;20112;-72
2022/03/09 07:35:33;;;;;;;14.73;10.10;;;6.60;99.90;;;;;;5048992;28;20017;-75
2022/03/09 07:38:25;;;;;;;17.33;8.85;;;6.70;99.90;;;;;;5048250;28;20032;-75
2022/03/09 07:41:05;;;;;;;10.32;8.07;;;6.80;99.90;;;;;;5053212;28;20028;-74
2022/03/09 07:43:52;;;;;;;16.52;8.18;;;6.90;99.90;;;;;;5053133;28;20128;-76
2022/03/09 07:46:18;;;;;;;14.70;9.93;;;6.90;99.90;;;;;;5053270;28;20017;-73
2022/03/09 07:48:47;;;;;;;24.02;11.93;;;7.10;99.90;;;;;;5056599;28;20120;-73
2022/03/09 07:51:13;;;;;;;22.33;9.73;;;7.20;99.90;;;;;;5052373;28;20016;-72
2022/03/09 07:53:42;;;;;;;16.05;9.40;;;7.30;99.90;;;;;;5053157;28;20102;-70
2022/03/09 07:56:12;;;;;;;23.85;11.32;;;7.30;99.90;;;;;;5048947;28;20018;-72
2022/03/09 07:58:39;;;;;;;26.63;10.07;;;7.50;99.90;;;;;;5052660;28;20090;-73
2022/03/09 08:01:05;;;;;;;25.65;10.75;;;7.50;99.90;;;;;;5053231;28;20181;-74
2022/03/09 08:03:32;;;;;;;22.35;10.98;;;7.70;99.90;;;;;;5053221;28;20032;-73
2022/03/09 08:05:58;;;;;;;19.30;9.88;;;7.70;99.90;;;;;;5052139;28;20471;-74
2022/03/09 08:08:24;;;;;;;22.25;9.85;;;7.70;99.90;;;;;;5044615;28;20036;-73
2022/03/09 08:10:50;;;;;;;16.98;10.10;;;7.80;99.90;;;;;;5041640;28;20025;-74
2022/03/09 08:13:16;;;;;;;25.13;11.50;;;7.90;99.90;;;;;;5051307;28;20029;-74
2022/03/09 08:15:42;;;;;;;42.97;12.95;;;8.00;99.90;;;;;;5051739;28;20441;-75
2022/03/09 08:18:08;;;;;;;31.58;10.45;;;8.20;99.90;;;;;;5050846;28;20061;-71
2022/03/09 08:20:35;;;;;;;25.52;11.73;;;8.20;99.90;;;;;;5050835;28;20028;-74
2022/03/09 08:23:01;;;;;;;25.75;14.98;;;8.30;99.90;;;;;;5050772;28;20018;-74
2022/03/09 08:25:27;;;;;;;20.60;9.95;;;8.30;99.90;;;;;;5070454;28;20024;-74
2022/03/09 08:27:53;;;;;;;22.00;11.60;;;8.40;99.90;;;;;;5072132;28;20393;-73
2022/03/09 08:30:19;;;;;;;24.90;12.00;;;8.40;99.90;;;;;;5053504;28;20021;-73
2022/03/09 08:32:45;;;;;;;15.85;10.20;;;8.40;99.90;;;;;;5052026;28;20033;-76
2022/03/09 08:35:11;;;;;;;19.88;10.65;;;8.40;99.90;;;;;;5053498;28;20040;-71
2022/03/09 08:37:37;;;;;;;14.80;10.25;;;8.20;99.50;;;;;;5050630;28;20029;-73
2022/03/09 08:40:04;;;;;;;21.42;11.52;;;8.10;99.90;;;;;;5051968;28;20023;-72
2022/03/09 08:42:30;;;;;;;14.02;10.65;;;8.10;99.90;;;;;;5052239;28;20086;-70
2022/03/09 08:44:55;;;;;;;14.98;10.05;;;8.10;99.90;;;;;;5065165;28;20470;-71
2022/03/09 08:47:21;;;;;;;10.98;7.97;;;8.20;99.90;;;;;;5061974;28;20064;-71
2022/03/09 08:49:47;;;;;;;21.63;9.35;;;8.20;99.90;;;;;;5087339;28;20032;-72
2022/03/09 08:52:14;;;;;;;20.33;8.88;;;8.10;99.90;;;;;;5070603;28;20036;-72
2022/03/09 08:54:42;;;;;;;17.90;9.55;;;8.20;99.90;;;;;;5055970;28;20434;-72
2022/03/09 08:57:08;;;;;;;20.52;9.63;;;8.20;99.90;;;;;;5050185;28;20116;-73
2022/03/09 08:59:34;;;;;;;16.98;10.05;;;8.20;99.90;;;;;;5050807;28;20036;-71
2022/03/09 09:02:00;;;;;;;20.75;11.07;;;8.30;99.90;;;;;;5051389;28;20017;-72
2022/03/09 09:04:26;;;;;;;11.90;10.02;;;8.40;99.90;;;;;;5055357;28;20364;-71
2022/03/09 09:06:52;;;;;;;20.13;9.48;;;8.40;99.90;;;;;;5051007;28;20112;-73
2022/03/09 09:09:18;;;;;;;14.88;9.02;;;8.40;99.90;;;;;;5057282;28;20104;-73
2022/03/09 09:11:47;;;;;;;13.05;9.45;;;8.40;99.90;;;;;;5067134;28;20033;-74
2022/03/09 09:14:13;;;;;;;16.75;10.18;;;8.40;99.90;;;;;;5069142;28;20174;-73
2022/03/09 09:16:41;;;;;;;12.95;9.27;;;8.40;99.90;;;;;;5052114;28;20119;-72
2022/03/09 09:19:08;;;;;;;17.40;10.07;;;8.40;99.90;;;;;;5051631;28;20065;-73
2022/03/09 09:21:35;;;;;;;16.52;9.45;;;8.40;99.90;;;;;;5051469;28;20017;-69
2022/03/09 09:24:01;;;;;;;14.13;10.07;;;8.40;99.90;;;;;;5062615;28;20116;-68
2022/03/09 09:26:26;;;;;;;15.68;9.68;;;8.40;99.90;;;;;;5062473;28;20479;-69
2022/03/09 09:28:52;;;;;;;13.63;10.73;;;8.40;99.90;;;;;;5050540;28;20182;-69
2022/03/09 09:31:18;;;;;;;15.80;11.10;;;8.40;99.90;;;;;;5050216;28;20091;-69
2022/03/09 09:33:43;;;;;;;13.50;10.65;;;8.40;99.90;;;;;;5049564;28;20033;-71
2022/03/09 09:36:09;;;;;;;23.83;10.27;;;8.40;99.90;;;;;;5046835;28;20127;-69
2022/03/09 09:38:35;;;;;;;16.35;10.95;;;8.50;99.90;;;;;;5044206;28;20104;-70
2022/03/09 09:41:01;;;;;;;12.95;9.85;;;8.60;99.90;;;;;;5040862;28;20025;-68
2022/03/09 09:43:27;;;;;;;14.43;10.43;;;8.50;99.90;;;;;;5041077;28;20079;-69
2022/03/09 09:45:53;;;;;;;14.57;9.10;;;8.60;99.90;;;;;;5047630;28;20029;-68
2022/03/09 09:48:19;;;;;;;14.52;9.00;;;8.60;99.90;;;;;;5038552;28;20034;-68
2022/03/09 09:50:45;;;;;;;13.85;10.35;;;8.70;99.90;;;;;;5039701;28;20060;-68
2022/03/09 09:53:14;;;;;;;13.93;10.68;;;8.80;99.90;;;;;;5040893;28;20033;-67
2022/03/09 09:55:41;;;;;;;13.50;10.25;;;8.80;99.90;;;;;;5039737;28;20032;-68
2022/03/09 09:58:07;;;;;;;18.25;12.00;;;8.70;99.90;;;;;;5043198;28;20029;-70
2022/03/09 10:00:34;;;;;;;15.20;10.20;;;8.70;99.90;;;;;;5044904;28;20063;-70
2022/03/09 10:03:00;;;;;;;16.23;9.93;;;8.60;99.90;;;;;;5038705;28;20127;-68
2022/03/09 10:05:26;;;;;;;11.88;8.82;;;8.50;99.90;;;;;;5046745;28;20471;-68
2022/03/09 10:08:04;;;;;;;15.90;10.40;;;8.50;99.90;;;;;;5039908;28;20104;-69
2022/03/09 10:10:30;;;;;;;10.80;9.52;;;8.50;99.90;;;;;;5038810;28;20024;-68
2022/03/09 10:13:15;;;;;;;21.13;10.43;;;8.50;99.90;;;;;;5038574;28;20045;-70
2022/03/09 10:15:42;;;;;;;17.98;10.93;;;8.60;99.90;;;;;;5039866;28;20430;-69
2022/03/09 10:18:15;;;;;;;14.48;9.57;;;8.60;99.90;;;;;;5045417;28;20036;-69
2022/03/09 10:20:42;;;;;;;16.40;10.35;;;8.60;99.90;;;;;;5047694;28;20044;-68
2022/03/09 10:23:08;;;;;;;14.73;10.27;;;8.60;99.90;;;;;;5037865;28;20014;-69
2022/03/09 10:25:34;;;;;;;13.77;10.02;;;8.60;99.90;;;;;;5042778;28;20053;-73
2022/03/09 10:28:07;;;;;;;20.30;11.13;;;8.70;99.90;;;;;;5041552;28;20030;-69
2022/03/09 10:30:35;;;;;;;19.20;12.63;;;8.70;99.90;;;;;;5042588;28;20139;-72
2022/03/09 10:33:09;;;;;;;13.70;11.23;;;8.70;99.90;;;;;;5042318;28;20029;-68
2022/03/09 10:35:47;;;;;;;17.67;11.88;;;8.70;99.90;;;;;;5047985;28;20117;-67
2022/03/09 10:38:16;;;;;;;18.23;12.93;;;8.70;99.90;;;;;;5043747;28;20068;-67
2022/03/09 10:40:43;;;;;;;17.08;11.68;;;8.80;99.90;;;;;;5037790;28;20021;-68
2022/03/09 10:43:12;;;;;;;19.75;12.95;;;9.00;99.90;;;;;;5040875;28;20076;-68
2022/03/09 10:46:13;;;;;;;17.35;11.75;;;8.90;99.90;;;;;;5040171;28;20036;-70
2022/03/09 10:48:54;;;;;;;16.98;13.00;;;8.80;99.90;;;;;;5043488;28;20032;-69
2022/03/09 10:51:36;;;;;;;17.00;12.30;;;8.80;99.90;;;;;;5042750;28;20040;-68
2022/03/09 10:54:26;;;;;;;18.33;13.95;;;8.80;99.90;;;;;;5044642;28;20088;-69
2022/03/09 10:57:10;;;;;;;18.98;13.80;;;8.90;99.90;;;;;;5039050;28;20120;-69
2022/03/09 10:59:46;;;;;;;17.15;13.07;;;9.00;99.90;;;;;;5046051;28;20108;-70
2022/03/09 11:02:12;;;;;;;16.27;13.27;;;9.20;99.90;;;;;;5041015;28;20028;-68
2022/03/09 11:04:39;;;;;;;21.33;13.98;;;9.20;99.90;;;;;;5030755;28;20021;-67
2022/03/09 11:07:05;;;;;;;16.60;13.23;;;9.30;99.90;;;;;;5041044;28;20032;-69
2022/03/09 11:09:31;;;;;;;17.50;12.93;;;9.30;99.90;;;;;;5045911;28;20085;-68
2022/03/09 11:11:57;;;;;;;24.02;15.95;;;9.30;99.90;;;;;;5043474;28;20029;-68
2022/03/09 11:14:26;;;;;;;23.10;17.50;;;9.30;99.90;;;;;;5045585;28;20025;-71
2022/03/09 11:16:53;;;;;;;22.17;18.15;;;9.30;99.90;;;;;;5048655;28;20102;-72
2022/03/09 11:19:20;;;;;;;23.60;18.75;;;9.30;99.90;;;;;;5051079;28;20031;-70
2022/03/09 11:21:47;;;;;;;23.70;17.67;;;9.30;99.90;;;;;;5046960;28;20088;-68
2022/03/09 11:24:15;;;;;;;25.60;17.83;;;9.50;99.90;;;;;;5050259;28;20049;-69
2022/03/09 11:26:54;;;;;;;22.50;17.13;;;9.50;99.90;;;;;;5044204;28;20427;-67
2022/03/09 11:29:33;;;;;;;25.33;17.63;;;9.60;99.90;;;;;;5045994;28;20037;-69
2022/03/09 11:31:59;;;;;;;22.23;16.15;;;9.50;99.90;;;;;;5039728;28;20120;-67
2022/03/09 11:34:34;;;;;;;19.75;16.05;;;9.50;99.90;;;;;;5045352;28;20132;-67
2022/03/09 11:37:14;;;;;;;24.38;16.90;;;9.50;99.90;;;;;;5043003;28;20030;-67
2022/03/09 11:39:46;;;;;;;23.33;16.08;;;9.60;99.90;;;;;;5043573;28;20028;-68
2022/03/09 11:42:21;;;;;;;19.52;16.25;;;9.60;99.90;;;;;;5050338;28;20098;-67
2022/03/09 11:44:47;;;;;;;23.98;18.23;;;9.60;99.90;;;;;;5044801;28;20025;-68
2022/03/09 11:47:13;;;;;;;22.02;16.63;;;9.50;99.90;;;;;;5045661;28;20025;-68
2022/03/09 11:49:41;;;;;;;21.52;17.33;;;9.50;99.90;;;;;;5047915;28;20035;-66
2022/03/09 11:52:13;;;;;;;20.42;17.77;;;9.40;99.90;;;;;;5040190;28;20475;-67
2022/03/09 11:54:52;;;;;;;33.20;22.02;;;9.40;99.90;;;;;;5037326;28;20025;-68
2022/03/09 11:57:18;;;;;;;25.73;18.70;;;9.50;99.90;;;;;;5037839;28;20079;-68
2022/03/09 12:00:08;;;;;;;21.20;17.63;;;9.60;99.90;;;;;;5046206;28;20064;-67
2022/03/09 12:02:39;;;;;;;23.15;20.35;;;9.60;99.90;;;;;;5042019;28;20018;-68
2022/03/09 12:05:06;;;;;;;27.25;22.45;;;9.70;99.90;;;;;;5040167;28;20029;-71
2022/03/09 12:07:33;;;;;;;27.90;21.67;;;9.80;99.90;;;;;;5050745;28;20459;-69
2022/03/09 12:10:04;;;;;;;25.20;21.70;;;9.80;99.90;;;;;;5046491;28;20035;-68
2022/03/09 12:12:32;;;;;;;37.08;22.33;;;9.70;99.90;;;;;;5046898;28;20151;-69
2022/03/09 12:15:01;;;;;;;31.25;22.42;;;9.80;99.90;;;;;;5049199;28;20029;-67
2022/03/09 12:17:28;;;;;;;27.67;21.95;;;9.80;99.90;;;;;;5052718;28;20124;-68
2022/03/09 12:20:16;;;;;;;27.90;21.95;;;9.90;99.90;;;;;;5052676;28;20079;-67
2022/03/09 12:22:57;;;;;;;26.75;19.20;;;10.00;99.90;;;;;;5052459;28;20050;-67
2022/03/09 12:25:35;;;;;;;25.83;19.60;;;10.00;99.90;;;;;;5050894;28;20078;-66
2022/03/09 12:31:09;;;;;;;21.88;17.45;;;10.20;98.20;;;;;;5032845;28;20025;-68
2022/03/09 12:33:39;;;;;;;19.00;16.42;;;10.30;98.00;;;;;;5038214;28;20041;-68
2022/03/09 12:36:05;;;;;;;22.95;18.52;;;10.20;97.50;;;;;;5031833;28;20111;-68
2022/03/09 12:38:54;;;;;;;21.70;16.50;;;10.20;99.60;;;;;;5033384;28;20100;-68
2022/03/09 12:41:23;;;;;;;28.02;21.13;;;10.10;99.30;;;;;;5052404;28;20025;-67
2022/03/09 12:43:51;;;;;;;34.38;22.13;;;10.10;99.90;;;;;;5050556;28;20595;-69
2022/03/09 12:46:18;;;;;;;27.70;22.05;;;10.10;99.90;;;;;;5050705;28;20030;-67
2022/03/09 12:48:44;;;;;;;36.60;25.92;;;10.10;99.90;;;;;;5052213;28;20036;-68